sensor_id;sensor_type;location;lat;lon;timestamp;temperature;humidity
68051;DHT22;54839;51.364;7.246;2023-09-18T00:02:24;19.70;99.90
68051;DHT22;54839;51.364;7.246;2023-09-18T00:04:50;19.70;99.90
68051;DHT22;54839;51.364;7.246;2023-09-18T00:07:16;19.70;99.90
68051;DHT22;54839;51.364;7.246;2023-09-18T00:09:41;19.70;99.90
68051;DHT22;54839;51.364;7.246;2023-09-18T00:12:07;19.70;99.90
68051;DHT22;54839;51.364;7.246;2023-09-18T00:14:32;19.70;99.90
68051;DHT22;54839;51.364;7.246;2023-09-18T00:16:58;19.60;99.90
68051;DHT22;54839;51.364;7.246;2023-09-18T00:19:24;19.50;99.90
68051;DHT22;54839;51.364;7.246;2023-09-18T00:21:50;19.50;99.90
68051;DHT22;54839;51.364;7.246;2023-09-18T00:24:18;19.50;99.90
68051;DHT22;54839;51.364;7.246;2023-09-18T00:26:43;19.40;99.90
68051;DHT22;54839;51.364;7.246;2023-09-18T00:29:09;19.30;99.90
68051;DHT22;54839;51.364;7.246;2023-09-18T00:31:34;19.40;99.90
68051;DHT22;54839;51.364;7.246;2023-09-18T00:34:00;19.30;99.90
68051;DHT22;54839;51.364;7.246;2023-09-18T00:36:25;19.30;99.90
68051;DHT22;54839;51.364;7.246;2023-09-18T00:38:51;19.20;99.90
68051;DHT22;54839;51.364;7.246;2023-09-18T00:41:17;19.20;99.90
68051;DHT22;54839;51.364;7.246;2023-09-18T00:43:42;19.20;99.90
68051;DHT22;54839;51.364;7.246;2023-09-18T00:46:08;19.20;99.90
68051;DHT22;54839;51.364;7.246;2023-09-18T00:48:34;19.20;99.90
68051;DHT22;54839;51.364;7.246;2023-09-18T00:51:00;19.20;99.90
68051;DHT22;54839;51.364;7.246;2023-09-18T00:53:26;19.10;99.90
68051;DHT22;54839;51.364;7.246;2023-09-18T00:55:55;19.20;99.90
68051;DHT22;54839;51.364;7.246;2023-09-18T00:58:22;19.30;99.90
68051;DHT22;54839;51.364;7.246;2023-09-18T01:00:47;19.20;99.90
68051;DHT22;54839;51.364;7.246;2023-09-18T01:03:16;19.20;99.90
68051;DHT22;54839;51.364;7.246;2023-09-18T01:05:44;19.10;99.90
68051;DHT22;54839;51.364;7.246;2023-09-18T01:08:10;19.20;99.90
68051;DHT22;54839;51.364;7.246;2023-09-18T01:10:45;19.20;99.90
68051;DHT22;54839;51.364;7.246;2023-09-18T01:13:14;19.10;99.90
68051;DHT22;54839;51.364;7.246;2023-09-18T01:16:08;19.10;99.90
68051;DHT22;54839;51.364;7.246;2023-09-18T01:18:35;19.10;99.90
68051;DHT22;54839;51.364;7.246;2023-09-18T01:21:01;19.20;99.90
68051;DHT22;54839;51.364;7.246;2023-09-18T01:23:26;19.10;99.90
68051;DHT22;54839;51.364;7.246;2023-09-18T01:25:52;19.20;99.90
68051;DHT22;54839;51.364;7.246;2023-09-18T01:28:17;19.20;99.90
68051;DHT22;54839;51.364;7.246;2023-09-18T01:30:43;19.30;99.90
68051;DHT22;54839;51.364;7.246;2023-09-18T01:33:10;19.60;99.90
68051;DHT22;54839;51.364;7.246;2023-09-18T01:35:36;19.50;99.90
68051;DHT22;54839;51.364;7.246;2023-09-18T01:38:02;19.60;99.90
68051;DHT22;54839;51.364;7.246;2023-09-18T01:40:28;19.40;99.90
68051;DHT22;54839;51.364;7.246;2023-09-18T01:42:55;19.50;99.90
68051;DHT22;54839;51.364;7.246;2023-09-18T01:45:21;19.60;99.90
68051;DHT22;54839;51.364;7.246;2023-09-18T01:47:46;19.70;99.90
68051;DHT22;54839;51.364;7.246;2023-09-18T01:50:12;19.80;99.90
68051;DHT22;54839;51.364;7.246;2023-09-18T01:52:38;19.70;99.90
68051;DHT22;54839;51.364;7.246;2023-09-18T01:55:04;19.90;99.90
68051;DHT22;54839;51.364;7.246;2023-09-18T01:57:30;19.90;99.90
68051;DHT22;54839;51.364;7.246;2023-09-18T01:59:55;19.80;99.90
68051;DHT22;54839;51.364;7.246;2023-09-18T02:02:21;19.70;99.90
68051;DHT22;54839;51.364;7.246;2023-09-18T02:04:46;19.70;99.90
68051;DHT22;54839;51.364;7.246;2023-09-18T02:07:12;19.70;99.90
68051;DHT22;54839;51.364;7.246;2023-09-18T02:09:39;19.80;99.90
68051;DHT22;54839;51.364;7.246;2023-09-18T02:12:04;19.90;99.90
68051;DHT22;54839;51.364;7.246;2023-09-18T02:14:31;19.90;99.90
68051;DHT22;54839;51.364;7.246;2023-09-18T02:16:56;19.90;99.90
68051;DHT22;54839;51.364;7.246;2023-09-18T02:19:22;20.00;99.90
68051;DHT22;54839;51.364;7.246;2023-09-18T02:21:47;20.30;99.90
68051;DHT22;54839;51.364;7.246;2023-09-18T02:24:13;20.40;99.90
68051;DHT22;54839;51.364;7.246;2023-09-18T02:26:38;20.40;99.90
68051;DHT22;54839;51.364;7.246;2023-09-18T02:29:07;20.40;99.90
68051;DHT22;54839;51.364;7.246;2023-09-18T02:31:35;20.50;99.90
68051;DHT22;54839;51.364;7.246;2023-09-18T02:34:01;20.70;99.90
68051;DHT22;54839;51.364;7.246;2023-09-18T02:36:26;20.80;99.90
68051;DHT22;54839;51.364;7.246;2023-09-18T02:38:52;20.90;99.90
68051;DHT22;54839;51.364;7.246;2023-09-18T02:41:17;21.00;99.90
68051;DHT22;54839;51.364;7.246;2023-09-18T02:43:43;20.90;99.90
68051;DHT22;54839;51.364;7.246;2023-09-18T02:46:09;20.80;99.90
68051;DHT22;54839;51.364;7.246;2023-09-18T02:48:34;20.80;99.90
68051;DHT22;54839;51.364;7.246;2023-09-18T02:51:01;20.80;99.90
68051;DHT22;54839;51.364;7.246;2023-09-18T02:53:26;20.90;99.90
68051;DHT22;54839;51.364;7.246;2023-09-18T02:55:54;21.00;99.90
68051;DHT22;54839;51.364;7.246;2023-09-18T02:58:20;21.10;99.90
68051;DHT22;54839;51.364;7.246;2023-09-18T03:00:48;21.20;99.90
68051;DHT22;54839;51.364;7.246;2023-09-18T03:03:15;21.30;99.90
68051;DHT22;54839;51.364;7.246;2023-09-18T03:05:42;21.30;99.90
68051;DHT22;54839;51.364;7.246;2023-09-18T03:08:08;21.40;99.90
68051;DHT22;54839;51.364;7.246;2023-09-18T03:10:34;21.40;99.90
68051;DHT22;54839;51.364;7.246;2023-09-18T03:13:04;21.50;99.90
68051;DHT22;54839;51.364;7.246;2023-09-18T03:15:30;21.50;99.90
68051;DHT22;54839;51.364;7.246;2023-09-18T03:17:59;21.50;99.90
68051;DHT22;54839;51.364;7.246;2023-09-18T03:20:26;21.50;99.90
68051;DHT22;54839;51.364;7.246;2023-09-18T03:22:54;21.40;99.90
68051;DHT22;54839;51.364;7.246;2023-09-18T03:25:20;21.50;99.90
68051;DHT22;54839;51.364;7.246;2023-09-18T03:27:47;21.60;99.90
68051;DHT22;54839;51.364;7.246;2023-09-18T03:30:12;21.40;99.90
68051;DHT22;54839;51.364;7.246;2023-09-18T03:32:41;21.40;99.90
68051;DHT22;54839;51.364;7.246;2023-09-18T03:35:07;21.40;99.90
68051;DHT22;54839;51.364;7.246;2023-09-18T03:37:34;21.40;99.90
68051;DHT22;54839;51.364;7.246;2023-09-18T03:39:59;21.50;99.90
68051;DHT22;54839;51.364;7.246;2023-09-18T03:42:26;21.30;99.90
68051;DHT22;54839;51.364;7.246;2023-09-18T03:44:51;21.30;99.90
68051;DHT22;54839;51.364;7.246;2023-09-18T03:47:17;21.30;99.90
68051;DHT22;54839;51.364;7.246;2023-09-18T03:49:42;21.30;99.90
68051;DHT22;54839;51.364;7.246;2023-09-18T03:52:08;21.20;99.90
68051;DHT22;54839;51.364;7.246;2023-09-18T03:54:33;21.20;99.90
68051;DHT22;54839;51.364;7.246;2023-09-18T03:56:59;21.20;99.90
68051;DHT22;54839;51.364;7.246;2023-09-18T03:59:25;21.10;99.90
68051;DHT22;54839;51.364;7.246;2023-09-18T04:01:50;21.00;99.90
68051;DHT22;54839;51.364;7.246;2023-09-18T04:04:16;21.00;99.90
68051;DHT22;54839;51.364;7.246;2023-09-18T04:06:43;20.90;99.90
68051;DHT22;54839;51.364;7.246;2023-09-18T04:09:10;20.90;99.90
68051;DHT22;54839;51.364;7.246;2023-09-18T04:11:36;20.80;99.90
68051;DHT22;54839;51.364;7.246;2023-09-18T04:14:01;20.90;99.90
68051;DHT22;54839;51.364;7.246;2023-09-18T04:16:28;20.90;99.90
68051;DHT22;54839;51.364;7.246;2023-09-18T04:18:56;20.80;99.90
68051;DHT22;54839;51.364;7.246;2023-09-18T04:21:22;20.70;99.90
68051;DHT22;54839;51.364;7.246;2023-09-18T04:23:47;20.80;99.90
68051;DHT22;54839;51.364;7.246;2023-09-18T04:26:13;20.70;99.90
68051;DHT22;54839;51.364;7.246;2023-09-18T04:28:41;20.80;99.90
68051;DHT22;54839;51.364;7.246;2023-09-18T04:31:07;20.70;99.90
68051;DHT22;54839;51.364;7.246;2023-09-18T04:33:33;20.80;99.90
68051;DHT22;54839;51.364;7.246;2023-09-18T04:35:58;20.70;99.90
68051;DHT22;54839;51.364;7.246;2023-09-18T04:38:24;20.50;99.90
68051;DHT22;54839;51.364;7.246;2023-09-18T04:40:56;20.60;99.90
68051;DHT22;54839;51.364;7.246;2023-09-18T04:43:22;20.50;99.90
68051;DHT22;54839;51.364;7.246;2023-09-18T04:45:50;20.50;99.90
68051;DHT22;54839;51.364;7.246;2023-09-18T04:48:16;20.40;99.90
68051;DHT22;54839;51.364;7.246;2023-09-18T04:50:42;20.30;99.90
68051;DHT22;54839;51.364;7.246;2023-09-18T04:53:07;20.40;99.90
68051;DHT22;54839;51.364;7.246;2023-09-18T04:55:34;20.20;99.90
68051;DHT22;54839;51.364;7.246;2023-09-18T04:57:59;20.20;99.90
68051;DHT22;54839;51.364;7.246;2023-09-18T05:00:25;20.30;99.90
68051;DHT22;54839;51.364;7.246;2023-09-18T05:02:52;20.20;99.90
68051;DHT22;54839;51.364;7.246;2023-09-18T05:05:18;20.10;99.90
68051;DHT22;54839;51.364;7.246;2023-09-18T05:07:44;20.20;99.90
68051;DHT22;54839;51.364;7.246;2023-09-18T05:10:10;20.10;99.90
68051;DHT22;54839;51.364;7.246;2023-09-18T05:12:37;20.00;99.90
68051;DHT22;54839;51.364;7.246;2023-09-18T05:15:03;20.00;99.90
68051;DHT22;54839;51.364;7.246;2023-09-18T05:17:41;19.90;99.90
68051;DHT22;54839;51.364;7.246;2023-09-18T05:20:11;19.90;99.90
68051;DHT22;54839;51.364;7.246;2023-09-18T05:22:42;19.90;99.90
68051;DHT22;54839;51.364;7.246;2023-09-18T05:25:08;19.80;99.90
68051;DHT22;54839;51.364;7.246;2023-09-18T05:27:36;19.90;99.90
68051;DHT22;54839;51.364;7.246;2023-09-18T05:30:19;19.90;99.90
68051;DHT22;54839;51.364;7.246;2023-09-18T05:32:47;20.00;99.90
68051;DHT22;54839;51.364;7.246;2023-09-18T05:35:14;20.00;99.90
68051;DHT22;54839;51.364;7.246;2023-09-18T05:37:41;20.00;99.90
68051;DHT22;54839;51.364;7.246;2023-09-18T05:40:08;19.80;99.90
68051;DHT22;54839;51.364;7.246;2023-09-18T05:42:44;20.00;99.90
68051;DHT22;54839;51.364;7.246;2023-09-18T05:45:12;20.00;99.90
68051;DHT22;54839;51.364;7.246;2023-09-18T05:47:38;20.00;99.90
68051;DHT22;54839;51.364;7.246;2023-09-18T05:50:08;20.10;99.90
68051;DHT22;54839;51.364;7.246;2023-09-18T05:52:34;19.90;99.90
68051;DHT22;54839;51.364;7.246;2023-09-18T05:55:01;19.90;99.90
68051;DHT22;54839;51.364;7.246;2023-09-18T05:57:27;20.00;99.90
68051;DHT22;54839;51.364;7.246;2023-09-18T05:59:57;20.00;99.90
68051;DHT22;54839;51.364;7.246;2023-09-18T06:02:23;20.00;99.90
68051;DHT22;54839;51.364;7.246;2023-09-18T06:04:57;20.00;99.90
68051;DHT22;54839;51.364;7.246;2023-09-18T06:07:29;20.00;99.90
68051;DHT22;54839;51.364;7.246;2023-09-18T06:09:57;20.00;99.90
68051;DHT22;54839;51.364;7.246;2023-09-18T06:12:22;20.10;99.90
68051;DHT22;54839;51.364;7.246;2023-09-18T06:14:49;19.90;99.90
68051;DHT22;54839;51.364;7.246;2023-09-18T06:17:15;20.00;99.90
68051;DHT22;54839;51.364;7.246;2023-09-18T06:19:41;20.10;99.90
68051;DHT22;54839;51.364;7.246;2023-09-18T06:22:07;20.20;99.90
68051;DHT22;54839;51.364;7.246;2023-09-18T06:24:35;20.00;99.90
68051;DHT22;54839;51.364;7.246;2023-09-18T06:27:01;20.10;99.90
68051;DHT22;54839;51.364;7.246;2023-09-18T06:29:27;20.20;99.90
68051;DHT22;54839;51.364;7.246;2023-09-18T06:31:52;20.10;99.90
68051;DHT22;54839;51.364;7.246;2023-09-18T06:34:18;20.20;99.90
68051;DHT22;54839;51.364;7.246;2023-09-18T06:36:44;20.20;99.90
68051;DHT22;54839;51.364;7.246;2023-09-18T06:39:09;20.50;99.90
68051;DHT22;54839;51.364;7.246;2023-09-18T06:41:35;20.40;99.90
68051;DHT22;54839;51.364;7.246;2023-09-18T06:44:02;20.30;99.90
68051;DHT22;54839;51.364;7.246;2023-09-18T06:46:28;20.30;99.90
68051;DHT22;54839;51.364;7.246;2023-09-18T06:48:54;20.40;99.90
68051;DHT22;54839;51.364;7.246;2023-09-18T06:51:20;20.40;99.90
68051;DHT22;54839;51.364;7.246;2023-09-18T06:53:45;20.50;99.90
68051;DHT22;54839;51.364;7.246;2023-09-18T06:56:11;20.50;99.90
68051;DHT22;54839;51.364;7.246;2023-09-18T06:58:38;20.50;99.90
68051;DHT22;54839;51.364;7.246;2023-09-18T07:01:03;20.70;99.90
68051;DHT22;54839;51.364;7.246;2023-09-18T07:03:32;20.70;99.90
68051;DHT22;54839;51.364;7.246;2023-09-18T07:06:00;20.70;99.90
68051;DHT22;54839;51.364;7.246;2023-09-18T07:08:26;20.70;99.90
68051;DHT22;54839;51.364;7.246;2023-09-18T07:10:51;20.60;99.90
68051;DHT22;54839;51.364;7.246;2023-09-18T07:13:17;20.60;99.90
68051;DHT22;54839;51.364;7.246;2023-09-18T07:15:43;20.70;99.90
68051;DHT22;54839;51.364;7.246;2023-09-18T07:18:09;20.70;99.90
68051;DHT22;54839;51.364;7.246;2023-09-18T07:20:45;20.70;99.90
68051;DHT22;54839;51.364;7.246;2023-09-18T07:23:11;20.80;99.90
68051;DHT22;54839;51.364;7.246;2023-09-18T07:25:36;20.90;99.90
68051;DHT22;54839;51.364;7.246;2023-09-18T07:28:06;21.00;99.90
68051;DHT22;54839;51.364;7.246;2023-09-18T07:30:32;21.20;99.90
68051;DHT22;54839;51.364;7.246;2023-09-18T07:32:59;21.10;99.90
68051;DHT22;54839;51.364;7.246;2023-09-18T07:35:25;21.10;99.90
68051;DHT22;54839;51.364;7.246;2023-09-18T07:37:51;21.00;99.90
68051;DHT22;54839;51.364;7.246;2023-09-18T07:40:17;21.30;99.90
68051;DHT22;54839;51.364;7.246;2023-09-18T07:42:42;21.30;99.90
68051;DHT22;54839;51.364;7.246;2023-09-18T07:45:11;21.50;99.90
68051;DHT22;54839;51.364;7.246;2023-09-18T07:47:37;21.90;99.90
68051;DHT22;54839;51.364;7.246;2023-09-18T07:50:03;21.90;99.90
68051;DHT22;54839;51.364;7.246;2023-09-18T07:55:34;21.80;99.90
68051;DHT22;54839;51.364;7.246;2023-09-18T07:57:59;21.70;99.90
68051;DHT22;54839;51.364;7.246;2023-09-18T08:00:25;21.50;99.90
68051;DHT22;54839;51.364;7.246;2023-09-18T08:02:51;21.50;99.90
68051;DHT22;54839;51.364;7.246;2023-09-18T08:05:19;21.50;99.90
68051;DHT22;54839;51.364;7.246;2023-09-18T08:07:45;21.50;99.90
68051;DHT22;54839;51.364;7.246;2023-09-18T08:10:13;21.50;99.90
68051;DHT22;54839;51.364;7.246;2023-09-18T08:12:38;21.50;99.90
68051;DHT22;54839;51.364;7.246;2023-09-18T08:15:04;21.80;99.90
68051;DHT22;54839;51.364;7.246;2023-09-18T08:17:31;21.70;99.90
68051;DHT22;54839;51.364;7.246;2023-09-18T08:19:57;21.60;99.90
68051;DHT22;54839;51.364;7.246;2023-09-18T08:22:23;21.50;99.90
68051;DHT22;54839;51.364;7.246;2023-09-18T08:24:49;21.20;99.90
68051;DHT22;54839;51.364;7.246;2023-09-18T08:27:18;21.20;99.90
68051;DHT22;54839;51.364;7.246;2023-09-18T08:29:44;21.30;99.90
68051;DHT22;54839;51.364;7.246;2023-09-18T08:32:10;21.30;99.90
68051;DHT22;54839;51.364;7.246;2023-09-18T08:34:35;21.20;99.90
68051;DHT22;54839;51.364;7.246;2023-09-18T08:37:02;21.40;99.90
68051;DHT22;54839;51.364;7.246;2023-09-18T08:39:28;21.40;99.90
68051;DHT22;54839;51.364;7.246;2023-09-18T08:41:58;21.10;99.90
68051;DHT22;54839;51.364;7.246;2023-09-18T08:44:26;21.20;99.90
68051;DHT22;54839;51.364;7.246;2023-09-18T08:46:53;21.40;99.90
68051;DHT22;54839;51.364;7.246;2023-09-18T08:49:21;21.50;99.90
68051;DHT22;54839;51.364;7.246;2023-09-18T08:51:48;21.40;99.90
68051;DHT22;54839;51.364;7.246;2023-09-18T08:54:15;21.40;99.90
68051;DHT22;54839;51.364;7.246;2023-09-18T08:56:41;21.60;99.90
68051;DHT22;54839;51.364;7.246;2023-09-18T08:59:06;21.60;99.90
68051;DHT22;54839;51.364;7.246;2023-09-18T09:01:32;21.30;99.90
68051;DHT22;54839;51.364;7.246;2023-09-18T09:03:58;21.50;99.90
68051;DHT22;54839;51.364;7.246;2023-09-18T09:06:23;21.80;99.90
68051;DHT22;54839;51.364;7.246;2023-09-18T09:08:49;21.70;99.90
68051;DHT22;54839;51.364;7.246;2023-09-18T09:11:15;21.70;99.90
68051;DHT22;54839;51.364;7.246;2023-09-18T09:13:41;21.70;99.90
68051;DHT22;54839;51.364;7.246;2023-09-18T09:16:10;21.70;99.90
68051;DHT22;54839;51.364;7.246;2023-09-18T09:18:47;21.70;99.90
68051;DHT22;54839;51.364;7.246;2023-09-18T09:21:13;22.10;99.90
68051;DHT22;54839;51.364;7.246;2023-09-18T09:23:46;22.00;99.90
68051;DHT22;54839;51.364;7.246;2023-09-18T09:26:18;22.00;99.90
68051;DHT22;54839;51.364;7.246;2023-09-18T09:28:44;21.60;99.90
68051;DHT22;54839;51.364;7.246;2023-09-18T09:31:10;21.50;99.90
68051;DHT22;54839;51.364;7.246;2023-09-18T09:33:37;21.70;99.90
68051;DHT22;54839;51.364;7.246;2023-09-18T09:36:05;21.90;99.90
68051;DHT22;54839;51.364;7.246;2023-09-18T09:38:33;22.40;99.90
68051;DHT22;54839;51.364;7.246;2023-09-18T09:41:00;22.30;99.90
68051;DHT22;54839;51.364;7.246;2023-09-18T09:43:27;22.10;99.90
68051;DHT22;54839;51.364;7.246;2023-09-18T09:46:02;21.70;99.90
68051;DHT22;54839;51.364;7.246;2023-09-18T09:48:29;22.00;99.90
68051;DHT22;54839;51.364;7.246;2023-09-18T09:50:59;22.20;99.90
68051;DHT22;54839;51.364;7.246;2023-09-18T09:53:45;22.10;99.90
68051;DHT22;54839;51.364;7.246;2023-09-18T09:56:14;22.40;99.90
68051;DHT22;54839;51.364;7.246;2023-09-18T09:58:40;22.80;99.90
68051;DHT22;54839;51.364;7.246;2023-09-18T10:01:11;22.40;99.90
68051;DHT22;54839;51.364;7.246;2023-09-18T10:03:43;22.50;99.90
68051;DHT22;54839;51.364;7.246;2023-09-18T10:06:09;22.60;99.90
68051;DHT22;54839;51.364;7.246;2023-09-18T10:08:38;22.70;99.90
68051;DHT22;54839;51.364;7.246;2023-09-18T10:11:09;22.70;99.90
68051;DHT22;54839;51.364;7.246;2023-09-18T10:13:47;22.60;99.90
68051;DHT22;54839;51.364;7.246;2023-09-18T10:16:18;22.50;99.90
68051;DHT22;54839;51.364;7.246;2023-09-18T10:19:07;22.40;99.90
68051;DHT22;54839;51.364;7.246;2023-09-18T10:22:01;22.70;99.90
68051;DHT22;54839;51.364;7.246;2023-09-18T10:24:35;22.80;99.90
68051;DHT22;54839;51.364;7.246;2023-09-18T10:27:03;22.90;99.90
68051;DHT22;54839;51.364;7.246;2023-09-18T10:29:30;23.00;99.90
68051;DHT22;54839;51.364;7.246;2023-09-18T10:31:56;22.90;99.90
68051;DHT22;54839;51.364;7.246;2023-09-18T10:34:23;22.90;99.90
68051;DHT22;54839;51.364;7.246;2023-09-18T10:36:54;22.70;99.90
68051;DHT22;54839;51.364;7.246;2023-09-18T10:39:25;22.80;99.90
68051;DHT22;54839;51.364;7.246;2023-09-18T10:41:56;22.90;99.90
68051;DHT22;54839;51.364;7.246;2023-09-18T10:44:28;22.90;99.90
68051;DHT22;54839;51.364;7.246;2023-09-18T10:46:54;22.70;99.90
68051;DHT22;54839;51.364;7.246;2023-09-18T10:49:21;22.30;99.90
68051;DHT22;54839;51.364;7.246;2023-09-18T10:51:47;22.50;99.90
68051;DHT22;54839;51.364;7.246;2023-09-18T10:54:20;22.40;99.90
68051;DHT22;54839;51.364;7.246;2023-09-18T10:56:47;22.30;99.90
68051;DHT22;54839;51.364;7.246;2023-09-18T10:59:14;22.60;99.90
68051;DHT22;54839;51.364;7.246;2023-09-18T11:01:41;22.40;99.90
68051;DHT22;54839;51.364;7.246;2023-09-18T11:04:08;22.50;99.90
68051;DHT22;54839;51.364;7.246;2023-09-18T11:09:23;22.80;99.90
68051;DHT22;54839;51.364;7.246;2023-09-18T11:14:56;23.10;99.90
68051;DHT22;54839;51.364;7.246;2023-09-18T11:17:40;23.00;99.90
68051;DHT22;54839;51.364;7.246;2023-09-18T11:25:38;23.30;99.90
68051;DHT22;54839;51.364;7.246;2023-09-18T11:28:06;23.20;99.90
68051;DHT22;54839;51.364;7.246;2023-09-18T11:30:36;23.10;99.90
68051;DHT22;54839;51.364;7.246;2023-09-18T11:33:03;23.40;99.90
68051;DHT22;54839;51.364;7.246;2023-09-18T11:35:29;23.80;99.90
68051;DHT22;54839;51.364;7.246;2023-09-18T11:38:10;24.00;99.90
68051;DHT22;54839;51.364;7.246;2023-09-18T11:40:38;24.00;99.90
68051;DHT22;54839;51.364;7.246;2023-09-18T11:45:55;24.10;99.90
68051;DHT22;54839;51.364;7.246;2023-09-18T11:48:23;23.80;99.90
68051;DHT22;54839;51.364;7.246;2023-09-18T11:50:56;23.90;99.90
68051;DHT22;54839;51.364;7.246;2023-09-18T11:53:23;24.50;99.90
68051;DHT22;54839;51.364;7.246;2023-09-18T11:55:49;24.70;99.90
68051;DHT22;54839;51.364;7.246;2023-09-18T11:58:15;24.80;99.90
68051;DHT22;54839;51.364;7.246;2023-09-18T12:00:41;24.90;99.90
68051;DHT22;54839;51.364;7.246;2023-09-18T12:03:21;24.60;99.90
68051;DHT22;54839;51.364;7.246;2023-09-18T12:05:57;24.40;99.90
68051;DHT22;54839;51.364;7.246;2023-09-18T12:08:24;24.60;99.90
68051;DHT22;54839;51.364;7.246;2023-09-18T12:10:55;24.30;99.90
68051;DHT22;54839;51.364;7.246;2023-09-18T12:13:21;24.00;99.90
68051;DHT22;54839;51.364;7.246;2023-09-18T12:15:48;24.30;99.90
68051;DHT22;54839;51.364;7.246;2023-09-18T12:18:15;24.10;99.90
68051;DHT22;54839;51.364;7.246;2023-09-18T12:20:48;23.80;99.90
68051;DHT22;54839;51.364;7.246;2023-09-18T12:23:15;23.70;99.90
68051;DHT22;54839;51.364;7.246;2023-09-18T12:25:40;23.70;99.90
68051;DHT22;54839;51.364;7.246;2023-09-18T12:28:07;23.70;99.90
68051;DHT22;54839;51.364;7.246;2023-09-18T12:30:33;23.40;99.90
68051;DHT22;54839;51.364;7.246;2023-09-18T12:32:59;23.40;99.90
68051;DHT22;54839;51.364;7.246;2023-09-18T12:35:25;22.90;99.90
68051;DHT22;54839;51.364;7.246;2023-09-18T12:37:55;23.00;99.90
68051;DHT22;54839;51.364;7.246;2023-09-18T12:40:22;23.10;99.90
68051;DHT22;54839;51.364;7.246;2023-09-18T12:42:49;23.00;99.90
68051;DHT22;54839;51.364;7.246;2023-09-18T12:45:15;23.20;99.90
68051;DHT22;54839;51.364;7.246;2023-09-18T12:47:41;24.50;99.90
68051;DHT22;54839;51.364;7.246;2023-09-18T12:50:07;25.90;99.90
68051;DHT22;54839;51.364;7.246;2023-09-18T12:52:33;25.20;99.90
68051;DHT22;54839;51.364;7.246;2023-09-18T12:54:58;26.40;99.90
68051;DHT22;54839;51.364;7.246;2023-09-18T12:57:25;26.00;99.90
68051;DHT22;54839;51.364;7.246;2023-09-18T12:59:51;26.40;99.90
68051;DHT22;54839;51.364;7.246;2023-09-18T13:02:18;26.30;99.90
68051;DHT22;54839;51.364;7.246;2023-09-18T13:04:55;27.80;99.90
68051;DHT22;54839;51.364;7.246;2023-09-18T13:07:22;28.20;99.90
68051;DHT22;54839;51.364;7.246;2023-09-18T13:10:02;29.00;99.90
68051;DHT22;54839;51.364;7.246;2023-09-18T13:12:48;27.80;99.90
68051;DHT22;54839;51.364;7.246;2023-09-18T13:15:25;26.10;99.90
68051;DHT22;54839;51.364;7.246;2023-09-18T13:17:53;26.00;99.90
68051;DHT22;54839;51.364;7.246;2023-09-18T13:20:22;26.00;99.90
68051;DHT22;54839;51.364;7.246;2023-09-18T13:22:53;26.70;99.90
68051;DHT22;54839;51.364;7.246;2023-09-18T13:25:30;26.70;99.90
68051;DHT22;54839;51.364;7.246;2023-09-18T13:27:56;28.70;99.90
68051;DHT22;54839;51.364;7.246;2023-09-18T13:30:22;30.10;99.90
68051;DHT22;54839;51.364;7.246;2023-09-18T13:32:49;30.50;99.90
68051;DHT22;54839;51.364;7.246;2023-09-18T13:35:18;30.70;99.90
68051;DHT22;54839;51.364;7.246;2023-09-18T13:37:44;28.10;99.90
68051;DHT22;54839;51.364;7.246;2023-09-18T13:40:11;26.60;99.90
68051;DHT22;54839;51.364;7.246;2023-09-18T13:42:38;26.60;99.90
68051;DHT22;54839;51.364;7.246;2023-09-18T13:45:07;26.10;99.90
68051;DHT22;54839;51.364;7.246;2023-09-18T13:47:34;29.00;99.90
68051;DHT22;54839;51.364;7.246;2023-09-18T13:50:01;30.00;99.90
68051;DHT22;54839;51.364;7.246;2023-09-18T13:52:31;30.60;99.90
68051;DHT22;54839;51.364;7.246;2023-09-18T13:54:56;31.30;99.90
68051;DHT22;54839;51.364;7.246;2023-09-18T13:57:22;31.90;99.90
68051;DHT22;54839;51.364;7.246;2023-09-18T13:59:50;31.10;99.90
68051;DHT22;54839;51.364;7.246;2023-09-18T14:02:16;30.70;99.90
68051;DHT22;54839;51.364;7.246;2023-09-18T14:04:42;28.70;99.90
68051;DHT22;54839;51.364;7.246;2023-09-18T14:07:09;26.80;99.90
68051;DHT22;54839;51.364;7.246;2023-09-18T14:09:36;26.30;99.90
68051;DHT22;54839;51.364;7.246;2023-09-18T14:12:02;27.30;99.90
68051;DHT22;54839;51.364;7.246;2023-09-18T14:14:33;26.70;99.90
68051;DHT22;54839;51.364;7.246;2023-09-18T14:16:58;26.80;99.90
68051;DHT22;54839;51.364;7.246;2023-09-18T14:19:24;28.20;99.90
68051;DHT22;54839;51.364;7.246;2023-09-18T14:21:49;28.00;99.90
68051;DHT22;54839;51.364;7.246;2023-09-18T14:24:16;27.60;99.90
68051;DHT22;54839;51.364;7.246;2023-09-18T14:26:44;27.30;99.90
68051;DHT22;54839;51.364;7.246;2023-09-18T14:29:10;26.80;99.90
68051;DHT22;54839;51.364;7.246;2023-09-18T14:31:37;28.50;99.90
68051;DHT22;54839;51.364;7.246;2023-09-18T14:34:03;30.50;99.90
68051;DHT22;54839;51.364;7.246;2023-09-18T14:36:31;31.40;99.80
68051;DHT22;54839;51.364;7.246;2023-09-18T14:38:57;32.60;97.50
68051;DHT22;54839;51.364;7.246;2023-09-18T14:41:24;33.40;94.70
68051;DHT22;54839;51.364;7.246;2023-09-18T14:43:50;32.50;93.40
68051;DHT22;54839;51.364;7.246;2023-09-18T14:46:17;31.90;93.40
68051;DHT22;54839;51.364;7.246;2023-09-18T14:48:42;31.70;93.40
68051;DHT22;54839;51.364;7.246;2023-09-18T14:51:08;31.10;92.40
68051;DHT22;54839;51.364;7.246;2023-09-18T14:53:33;30.90;92.60
68051;DHT22;54839;51.364;7.246;2023-09-18T14:56:00;29.90;92.60
68051;DHT22;54839;51.364;7.246;2023-09-18T14:58:25;27.90;94.70
68051;DHT22;54839;51.364;7.246;2023-09-18T15:00:51;27.40;95.60
68051;DHT22;54839;51.364;7.246;2023-09-18T15:03:17;26.60;97.50
68051;DHT22;54839;51.364;7.246;2023-09-18T15:05:43;26.20;98.70
68051;DHT22;54839;51.364;7.246;2023-09-18T15:08:08;26.10;99.30
68051;DHT22;54839;51.364;7.246;2023-09-18T15:10:34;26.50;98.60
68051;DHT22;54839;51.364;7.246;2023-09-18T15:12:59;26.80;99.40
68051;DHT22;54839;51.364;7.246;2023-09-18T15:15:25;26.30;99.70
68051;DHT22;54839;51.364;7.246;2023-09-18T15:17:51;26.00;99.90
68051;DHT22;54839;51.364;7.246;2023-09-18T15:20:18;26.30;99.90
68051;DHT22;54839;51.364;7.246;2023-09-18T15:22:44;27.40;99.90
68051;DHT22;54839;51.364;7.246;2023-09-18T15:25:10;28.40;97.30
68051;DHT22;54839;51.364;7.246;2023-09-18T15:27:36;28.40;98.30
68051;DHT22;54839;51.364;7.246;2023-09-18T15:30:03;29.10;97.40
68051;DHT22;54839;51.364;7.246;2023-09-18T15:32:32;28.10;97.80
68051;DHT22;54839;51.364;7.246;2023-09-18T15:35:10;28.00;98.90
68051;DHT22;54839;51.364;7.246;2023-09-18T15:37:36;27.70;98.00
68051;DHT22;54839;51.364;7.246;2023-09-18T15:40:01;27.40;98.10
68051;DHT22;54839;51.364;7.246;2023-09-18T15:42:30;26.90;98.20
68051;DHT22;54839;51.364;7.246;2023-09-18T15:44:56;28.20;98.00
68051;DHT22;54839;51.364;7.246;2023-09-18T15:47:21;28.10;97.30
68051;DHT22;54839;51.364;7.246;2023-09-18T15:49:47;30.00;96.40